sensor_id;sensor_type;location;lat;lon;timestamp;temperature;humidity
9365;DHT22;4722;49.340;9.800;2023-06-01T00:00:42;10.80;99.90
9365;DHT22;4722;49.340;9.800;2023-06-01T00:08:01;10.80;99.90
9365;DHT22;4722;49.340;9.800;2023-06-01T00:10:29;10.90;99.90
9365;DHT22;4722;49.340;9.800;2023-06-01T00:12:55;10.90;99.90
9365;DHT22;4722;49.340;9.800;2023-06-01T00:17:46;10.90;99.90
9365;DHT22;4722;49.340;9.800;2023-06-01T00:25:06;10.40;99.90
9365;DHT22;4722;49.340;9.800;2023-06-01T00:27:31;10.80;99.90
9365;DHT22;4722;49.340;9.800;2023-06-01T00:29:57;10.70;99.90
9365;DHT22;4722;49.340;9.800;2023-06-01T00:32:22;10.80;99.90
9365;DHT22;4722;49.340;9.800;2023-06-01T00:34:48;10.70;99.90
9365;DHT22;4722;49.340;9.800;2023-06-01T00:37:13;10.70;99.90
9365;DHT22;4722;49.340;9.800;2023-06-01T00:39:39;10.70;99.90
9365;DHT22;4722;49.340;9.800;2023-06-01T00:42:04;10.70;99.90
9365;DHT22;4722;49.340;9.800;2023-06-01T00:46:56;10.60;99.90
9365;DHT22;4722;49.340;9.800;2023-06-01T00:49:24;10.70;99.90
9365;DHT22;4722;49.340;9.800;2023-06-01T00:56:42;10.70;99.90
9365;DHT22;4722;49.340;9.800;2023-06-01T01:18:57;10.40;99.90
9365;DHT22;4722;49.340;9.800;2023-06-01T01:21:31;9.50;99.90
9365;DHT22;4722;49.340;9.800;2023-06-01T01:31:17;9.40;99.90
9365;DHT22;4722;49.340;9.800;2023-06-01T01:38:34;9.30;99.90
9365;DHT22;4722;49.340;9.800;2023-06-01T01:43:26;7.00;99.90
9365;DHT22;4722;49.340;9.800;2023-06-01T01:50:56;9.30;99.90
9365;DHT22;4722;49.340;9.800;2023-06-01T01:55:49;10.10;99.90
9365;DHT22;4722;49.340;9.800;2023-06-01T01:58:16;9.20;99.90
9365;DHT22;4722;49.340;9.800;2023-06-01T02:00:42;9.40;99.90
9365;DHT22;4722;49.340;9.800;2023-06-01T02:03:15;9.10;99.90
9365;DHT22;4722;49.340;9.800;2023-06-01T02:05:41;10.10;99.90
9365;DHT22;4722;49.340;9.800;2023-06-01T02:08:07;10.20;99.90
9365;DHT22;4722;49.340;9.800;2023-06-01T02:10:32;9.10;99.90
9365;DHT22;4722;49.340;9.800;2023-06-01T02:12:57;9.10;99.90
9365;DHT22;4722;49.340;9.800;2023-06-01T02:15:23;10.20;99.90
9365;DHT22;4722;49.340;9.800;2023-06-01T02:17:48;9.10;99.90
9365;DHT22;4722;49.340;9.800;2023-06-01T02:20:14;10.00;99.90
9365;DHT22;4722;49.340;9.800;2023-06-01T02:22:39;9.10;99.90
9365;DHT22;4722;49.340;9.800;2023-06-01T02:25:05;8.90;99.90
9365;DHT22;4722;49.340;9.800;2023-06-01T02:27:31;9.00;99.90
9365;DHT22;4722;49.340;9.800;2023-06-01T02:29:56;8.90;99.90
9365;DHT22;4722;49.340;9.800;2023-06-01T02:32:22;8.90;99.90
9365;DHT22;4722;49.340;9.800;2023-06-01T02:34:47;9.80;99.90
9365;DHT22;4722;49.340;9.800;2023-06-01T02:39:41;9.30;99.90
9365;DHT22;4722;49.340;9.800;2023-06-01T02:42:06;8.80;99.90
9365;DHT22;4722;49.340;9.800;2023-06-01T02:44:33;8.70;99.90
9365;DHT22;4722;49.340;9.800;2023-06-01T02:59:08;9.70;99.90
9365;DHT22;4722;49.340;9.800;2023-06-01T03:04:01;9.10;99.90
9365;DHT22;4722;49.340;9.800;2023-06-01T03:06:29;9.70;99.90
9365;DHT22;4722;49.340;9.800;2023-06-01T03:11:22;8.80;99.90
9365;DHT22;4722;49.340;9.800;2023-06-01T03:13:48;9.70;99.90
9365;DHT22;4722;49.340;9.800;2023-06-01T03:35:43;9.00;99.90
9365;DHT22;4722;49.340;9.800;2023-06-01T03:38:09;9.00;99.90
9365;DHT22;4722;49.340;9.800;2023-06-01T03:40:34;8.90;99.90
9365;DHT22;4722;49.340;9.800;2023-06-01T03:45:27;9.10;99.90
9365;DHT22;4722;49.340;9.800;2023-06-01T03:47:53;8.80;99.90
9365;DHT22;4722;49.340;9.800;2023-06-01T03:50:18;9.10;99.90
9365;DHT22;4722;49.340;9.800;2023-06-01T04:02:56;9.40;99.90
9365;DHT22;4722;49.340;9.800;2023-06-01T04:07:50;9.60;99.90
9365;DHT22;4722;49.340;9.800;2023-06-01T04:12:43;10.00;99.90
9365;DHT22;4722;49.340;9.800;2023-06-01T04:20:08;9.30;99.90
9365;DHT22;4722;49.340;9.800;2023-06-01T04:25:11;9.10;99.90
9365;DHT22;4722;49.340;9.800;2023-06-01T04:30:07;9.40;99.90
9365;DHT22;4722;49.340;9.800;2023-06-01T05:11:39;12.20;99.90
9365;DHT22;4722;49.340;9.800;2023-06-01T05:18:57;12.20;99.90
9365;DHT22;4722;49.340;9.800;2023-06-01T05:38:25;14.20;99.90
9365;DHT22;4722;49.340;9.800;2023-06-01T05:57:52;19.30;99.90
9365;DHT22;4722;49.340;9.800;2023-06-01T06:05:10;21.70;99.90
9365;DHT22;4722;49.340;9.800;2023-06-01T06:07:36;23.00;98.90
9365;DHT22;4722;49.340;9.800;2023-06-01T06:10:02;22.90;94.60
9365;DHT22;4722;49.340;9.800;2023-06-01T06:22:13;28.20;73.10
9365;DHT22;4722;49.340;9.800;2023-06-01T06:24:38;29.00;73.30
9365;DHT22;4722;49.340;9.800;2023-06-01T06:27:04;29.60;63.10
9365;DHT22;4722;49.340;9.800;2023-06-01T06:29:31;33.10;53.10
9365;DHT22;4722;49.340;9.800;2023-06-01T06:31:56;32.70;52.80
9365;DHT22;4722;49.340;9.800;2023-06-01T06:44:07;35.50;42.00
9365;DHT22;4722;49.340;9.800;2023-06-01T06:58:44;32.60;44.50
9365;DHT22;4722;49.340;9.800;2023-06-01T07:06:03;33.20;46.00
9365;DHT22;4722;49.340;9.800;2023-06-01T07:08:29;32.90;47.90
9365;DHT22;4722;49.340;9.800;2023-06-01T07:10:59;33.30;46.00
9365;DHT22;4722;49.340;9.800;2023-06-01T07:13:25;33.10;45.20
9365;DHT22;4722;49.340;9.800;2023-06-01T07:15:52;33.00;45.90
9365;DHT22;4722;49.340;9.800;2023-06-01T07:18:19;32.90;46.80
9365;DHT22;4722;49.340;9.800;2023-06-01T07:20:44;33.40;45.60
9365;DHT22;4722;49.340;9.800;2023-06-01T07:23:10;33.10;45.20
9365;DHT22;4722;49.340;9.800;2023-06-01T07:25:38;33.30;45.00
9365;DHT22;4722;49.340;9.800;2023-06-01T07:28:04;33.20;44.80
9365;DHT22;4722;49.340;9.800;2023-06-01T07:30:34;33.20;45.00
9365;DHT22;4722;49.340;9.800;2023-06-01T07:32:59;33.20;44.80
9365;DHT22;4722;49.340;9.800;2023-06-01T07:35:25;33.00;45.20
9365;DHT22;4722;49.340;9.800;2023-06-01T07:37:52;33.30;45.90
9365;DHT22;4722;49.340;9.800;2023-06-01T07:40:18;33.40;43.90
9365;DHT22;4722;49.340;9.800;2023-06-01T07:42:43;33.10;44.20
9365;DHT22;4722;49.340;9.800;2023-06-01T07:45:09;33.00;44.80
9365;DHT22;4722;49.340;9.800;2023-06-01T07:47:35;33.10;44.10
9365;DHT22;4722;49.340;9.800;2023-06-01T07:50:00;33.40;46.00
9365;DHT22;4722;49.340;9.800;2023-06-01T07:52:26;31.80;48.50
9365;DHT22;4722;49.340;9.800;2023-06-01T07:54:51;30.00;48.50
9365;DHT22;4722;49.340;9.800;2023-06-01T07:57:17;29.70;49.30
9365;DHT22;4722;49.340;9.800;2023-06-01T07:59:43;30.50;51.00
9365;DHT22;4722;49.340;9.800;2023-06-01T08:02:09;29.60;50.20
9365;DHT22;4722;49.340;9.800;2023-06-01T08:04:36;29.10;52.00
9365;DHT22;4722;49.340;9.800;2023-06-01T08:07:03;29.00;52.60
9365;DHT22;4722;49.340;9.800;2023-06-01T08:09:28;27.90;54.70
9365;DHT22;4722;49.340;9.800;2023-06-01T08:11:54;28.30;55.70
9365;DHT22;4722;49.340;9.800;2023-06-01T08:14:20;27.50;54.50
9365;DHT22;4722;49.340;9.800;2023-06-01T08:16:46;27.30;54.80
9365;DHT22;4722;49.340;9.800;2023-06-01T08:19:11;27.30;53.80
9365;DHT22;4722;49.340;9.800;2023-06-01T08:21:37;27.70;55.10
9365;DHT22;4722;49.340;9.800;2023-06-01T08:24:02;27.90;52.50
9365;DHT22;4722;49.340;9.800;2023-06-01T08:26:28;28.00;51.40
9365;DHT22;4722;49.340;9.800;2023-06-01T08:28:54;28.60;51.50
9365;DHT22;4722;49.340;9.800;2023-06-01T08:31:21;29.00;52.20
9365;DHT22;4722;49.340;9.800;2023-06-01T08:33:46;29.60;51.20
9365;DHT22;4722;49.340;9.800;2023-06-01T08:36:12;29.70;50.10
9365;DHT22;4722;49.340;9.800;2023-06-01T08:38:38;29.70;48.40
9365;DHT22;4722;49.340;9.800;2023-06-01T08:41:10;30.90;49.10
9365;DHT22;4722;49.340;9.800;2023-06-01T08:43:36;32.30;46.70
9365;DHT22;4722;49.340;9.800;2023-06-01T08:46:05;31.50;46.40
9365;DHT22;4722;49.340;9.800;2023-06-01T08:48:30;34.80;43.30
9365;DHT22;4722;49.340;9.800;2023-06-01T08:50:56;35.20;40.60
9365;DHT22;4722;49.340;9.800;2023-06-01T08:53:23;35.50;39.10
9365;DHT22;4722;49.340;9.800;2023-06-01T08:55:52;36.20;40.90
9365;DHT22;4722;49.340;9.800;2023-06-01T08:58:17;35.90;37.80
9365;DHT22;4722;49.340;9.800;2023-06-01T09:00:43;35.50;38.60
9365;DHT22;4722;49.340;9.800;2023-06-01T09:03:08;36.00;38.10
9365;DHT22;4722;49.340;9.800;2023-06-01T09:05:35;36.40;36.90
9365;DHT22;4722;49.340;9.800;2023-06-01T09:08:00;37.50;38.70
9365;DHT22;4722;49.340;9.800;2023-06-01T09:10:27;38.20;33.70
9365;DHT22;4722;49.340;9.800;2023-06-01T09:12:53;38.50;34.10
9365;DHT22;4722;49.340;9.800;2023-06-01T09:15:19;38.30;35.00
9365;DHT22;4722;49.340;9.800;2023-06-01T09:17:46;39.10;34.70
9365;DHT22;4722;49.340;9.800;2023-06-01T09:20:22;39.20;31.10
9365;DHT22;4722;49.340;9.800;2023-06-01T09:22:47;36.30;34.10
9365;DHT22;4722;49.340;9.800;2023-06-01T09:25:14;36.70;34.30
9365;DHT22;4722;49.340;9.800;2023-06-01T09:27:43;35.60;34.00
9365;DHT22;4722;49.340;9.800;2023-06-01T09:30:09;33.40;37.90
9365;DHT22;4722;49.340;9.800;2023-06-01T09:32:35;31.70;41.80
9365;DHT22;4722;49.340;9.800;2023-06-01T09:35:00;31.30;42.40
9365;DHT22;4722;49.340;9.800;2023-06-01T09:37:26;30.90;40.80
9365;DHT22;4722;49.340;9.800;2023-06-01T09:39:52;30.20;44.40
9365;DHT22;4722;49.340;9.800;2023-06-01T09:42:18;28.30;44.30
9365;DHT22;4722;49.340;9.800;2023-06-01T09:44:55;29.30;44.90
9365;DHT22;4722;49.340;9.800;2023-06-01T09:47:38;27.90;45.40
9365;DHT22;4722;49.340;9.800;2023-06-01T09:50:03;28.70;45.70
9365;DHT22;4722;49.340;9.800;2023-06-01T09:52:29;27.70;47.70
9365;DHT22;4722;49.340;9.800;2023-06-01T09:54:55;28.40;48.00
9365;DHT22;4722;49.340;9.800;2023-06-01T09:57:29;27.50;47.90
9365;DHT22;4722;49.340;9.800;2023-06-01T09:59:55;27.50;47.50
9365;DHT22;4722;49.340;9.800;2023-06-01T10:02:21;27.40;47.40
9365;DHT22;4722;49.340;9.800;2023-06-01T10:04:48;27.30;46.40
9365;DHT22;4722;49.340;9.800;2023-06-01T10:07:16;27.40;46.60
9365;DHT22;4722;49.340;9.800;2023-06-01T10:09:43;28.00;47.80
9365;DHT22;4722;49.340;9.800;2023-06-01T10:12:10;27.20;47.00
9365;DHT22;4722;49.340;9.800;2023-06-01T10:14:36;27.30;47.50
9365;DHT22;4722;49.340;9.800;2023-06-01T10:19:29;27.50;46.40
9365;DHT22;4722;49.340;9.800;2023-06-01T10:21:57;27.20;47.40
9365;DHT22;4722;49.340;9.800;2023-06-01T10:27:24;27.10;47.50
9365;DHT22;4722;49.340;9.800;2023-06-01T10:29:53;27.00;49.50
9365;DHT22;4722;49.340;9.800;2023-06-01T10:35:03;27.30;46.70
9365;DHT22;4722;49.340;9.800;2023-06-01T10:40:30;27.60;48.30
9365;DHT22;4722;49.340;9.800;2023-06-01T10:48:04;27.20;43.50
9365;DHT22;4722;49.340;9.800;2023-06-01T10:51:16;27.60;45.30
9365;DHT22;4722;49.340;9.800;2023-06-01T11:01:41;27.10;45.70
9365;DHT22;4722;49.340;9.800;2023-06-01T11:06:37;27.20;46.00
9365;DHT22;4722;49.340;9.800;2023-06-01T11:09:09;27.10;47.00
9365;DHT22;4722;49.340;9.800;2023-06-01T11:19:08;27.00;45.30
9365;DHT22;4722;49.340;9.800;2023-06-01T11:21:41;27.10;45.80
9365;DHT22;4722;49.340;9.800;2023-06-01T11:24:15;27.20;45.60
9365;DHT22;4722;49.340;9.800;2023-06-01T11:26:46;27.30;46.40
9365;DHT22;4722;49.340;9.800;2023-06-01T11:29:22;27.50;44.60
9365;DHT22;4722;49.340;9.800;2023-06-01T11:31:57;26.90;45.70
9365;DHT22;4722;49.340;9.800;2023-06-01T11:39:26;26.70;46.20
9365;DHT22;4722;49.340;9.800;2023-06-01T11:44:43;27.50;43.70
9365;DHT22;4722;49.340;9.800;2023-06-01T11:47:10;27.70;46.40
9365;DHT22;4722;49.340;9.800;2023-06-01T11:49:47;27.50;46.30
9365;DHT22;4722;49.340;9.800;2023-06-01T11:52:14;26.60;60.40
9365;DHT22;4722;49.340;9.800;2023-06-01T11:59:44;26.80;43.20
9365;DHT22;4722;49.340;9.800;2023-06-01T12:02:21;27.40;47.50
9365;DHT22;4722;49.340;9.800;2023-06-01T12:04:58;27.90;43.30
9365;DHT22;4722;49.340;9.800;2023-06-01T12:07:25;27.40;46.70
9365;DHT22;4722;49.340;9.800;2023-06-01T12:09:54;27.30;44.40
9365;DHT22;4722;49.340;9.800;2023-06-01T12:12:24;28.20;49.80
9365;DHT22;4722;49.340;9.800;2023-06-01T12:14:51;27.80;44.50
9365;DHT22;4722;49.340;9.800;2023-06-01T12:19:50;28.00;44.40
9365;DHT22;4722;49.340;9.800;2023-06-01T12:27:14;26.90;41.10
9365;DHT22;4722;49.340;9.800;2023-06-01T12:29:46;27.80;40.70
9365;DHT22;4722;49.340;9.800;2023-06-01T12:32:13;27.40;41.50
9365;DHT22;4722;49.340;9.800;2023-06-01T12:42:07;27.00;44.90
9365;DHT22;4722;49.340;9.800;2023-06-01T12:49:26;27.10;43.90
9365;DHT22;4722;49.340;9.800;2023-06-01T12:51:54;26.90;59.80
9365;DHT22;4722;49.340;9.800;2023-06-01T12:56:49;27.50;44.00
9365;DHT22;4722;49.340;9.800;2023-06-01T13:06:35;27.20;42.10
9365;DHT22;4722;49.340;9.800;2023-06-01T13:09:01;27.90;43.40
9365;DHT22;4722;49.340;9.800;2023-06-01T13:38:24;28.00;48.60
9365;DHT22;4722;49.340;9.800;2023-06-01T13:43:16;27.40;47.20
9365;DHT22;4722;49.340;9.800;2023-06-01T13:53:00;27.30;52.30
9365;DHT22;4722;49.340;9.800;2023-06-01T15:08:35;27.90;62.50
9365;DHT22;4722;49.340;9.800;2023-06-01T15:57:22;27.60;48.40
9365;DHT22;4722;49.340;9.800;2023-06-01T16:09:34;27.10;45.70
9365;DHT22;4722;49.340;9.800;2023-06-01T17:10:25;27.80;57.70
9365;DHT22;4722;49.340;9.800;2023-06-01T17:39:39;26.90;48.60
9365;DHT22;4722;49.340;9.800;2023-06-01T18:23:33;25.00;60.30
9365;DHT22;4722;49.340;9.800;2023-06-01T18:47:53;23.60;62.90
9365;DHT22;4722;49.340;9.800;2023-06-01T18:50:18;24.00;65.90
9365;DHT22;4722;49.340;9.800;2023-06-01T18:52:45;23.10;62.10
9365;DHT22;4722;49.340;9.800;2023-06-01T18:55:11;22.70;61.60
9365;DHT22;4722;49.340;9.800;2023-06-01T18:57:39;23.70;61.60
9365;DHT22;4722;49.340;9.800;2023-06-01T19:00:05;23.60;61.70
9365;DHT22;4722;49.340;9.800;2023-06-01T19:07:36;22.10;57.90
9365;DHT22;4722;49.340;9.800;2023-06-01T19:10:09;22.70;58.10
9365;DHT22;4722;49.340;9.800;2023-06-01T19:15:01;22.30;60.40
9365;DHT22;4722;49.340;9.800;2023-06-01T19:22:30;22.00;69.00
9365;DHT22;4722;49.340;9.800;2023-06-01T19:24:58;21.70;58.60
9365;DHT22;4722;49.340;9.800;2023-06-01T19:39:44;21.40;63.70
9365;DHT22;4722;49.340;9.800;2023-06-01T19:49:58;20.10;63.30
9365;DHT22;4722;49.340;9.800;2023-06-01T19:52:45;19.50;63.40
9365;DHT22;4722;49.340;9.800;2023-06-01T19:55:14;19.80;59.80
9365;DHT22;4722;49.340;9.800;2023-06-01T20:02:50;20.00;65.40
9365;DHT22;4722;49.340;9.800;2023-06-01T20:05:20;19.90;68.40
9365;DHT22;4722;49.340;9.800;2023-06-01T20:07:54;19.80;70.30
9365;DHT22;4722;49.340;9.800;2023-06-01T20:10:25;18.90;89.70
9365;DHT22;4722;49.340;9.800;2023-06-01T20:12:54;19.40;72.20
9365;DHT22;4722;49.340;9.800;2023-06-01T20:15:31;19.60;73.70
9365;DHT22;4722;49.340;9.800;2023-06-01T20:18:00;19.30;75.20
9365;DHT22;4722;49.340;9.800;2023-06-01T20:20:28;18.30;74.40
9365;DHT22;4722;49.340;9.800;2023-06-01T20:22:56;18.20;75.60
9365;DHT22;4722;49.340;9.800;2023-06-01T20:25:21;18.00;76.50
9365;DHT22;4722;49.340;9.800;2023-06-01T20:27:48;18.00;76.90
9365;DHT22;4722;49.340;9.800;2023-06-01T20:32:53;17.80;76.20
9365;DHT22;4722;49.340;9.800;2023-06-01T20:35:18;17.70;76.20
9365;DHT22;4722;49.340;9.800;2023-06-01T20:37:44;17.70;77.50
9365;DHT22;4722;49.340;9.800;2023-06-01T20:40:13;17.50;78.50
9365;DHT22;4722;49.340;9.800;2023-06-01T20:42:58;17.50;79.80
9365;DHT22;4722;49.340;9.800;2023-06-01T20:45:33;17.30;80.30
9365;DHT22;4722;49.340;9.800;2023-06-01T20:48:12;16.90;81.20
9365;DHT22;4722;49.340;9.800;2023-06-01T20:53:15;16.80;82.00
9365;DHT22;4722;49.340;9.800;2023-06-01T20:55:40;16.60;81.20
9365;DHT22;4722;49.340;9.800;2023-06-01T20:58:06;15.90;81.40
9365;DHT22;4722;49.340;9.800;2023-06-01T21:00:32;16.60;81.10
9365;DHT22;4722;49.340;9.800;2023-06-01T21:02:58;16.60;82.20
9365;DHT22;4722;49.340;9.800;2023-06-01T21:05:30;17.00;82.60
9365;DHT22;4722;49.340;9.800;2023-06-01T21:07:56;15.60;82.80
9365;DHT22;4722;49.340;9.800;2023-06-01T21:10:21;16.40;82.20
9365;DHT22;4722;49.340;9.800;2023-06-01T21:12:48;16.50;84.30
9365;DHT22;4722;49.340;9.800;2023-06-01T21:15:14;16.60;85.50
9365;DHT22;4722;49.340;9.800;2023-06-01T21:17:39;15.40;84.30
9365;DHT22;4722;49.340;9.800;2023-06-01T21:20:05;16.50;86.90
9365;DHT22;4722;49.340;9.800;2023-06-01T21:22:30;15.20;86.00
9365;DHT22;4722;49.340;9.800;2023-06-01T21:24:56;15.30;86.80
9365;DHT22;4722;49.340;9.800;2023-06-01T21:27:21;16.40;88.20
9365;DHT22;4722;49.340;9.800;2023-06-01T21:29:47;15.80;89.20
9365;DHT22;4722;49.340;9.800;2023-06-01T21:32:13;15.30;91.30
9365;DHT22;4722;49.340;9.800;2023-06-01T21:34:40;15.00;91.30
9365;DHT22;4722;49.340;9.800;2023-06-01T21:37:05;15.10;92.50
9365;DHT22;4722;49.340;9.800;2023-06-01T21:39:31;14.80;92.40
9365;DHT22;4722;49.340;9.800;2023-06-01T21:41:56;14.70;93.00
9365;DHT22;4722;49.340;9.800;2023-06-01T21:44:22;14.70;93.90
9365;DHT22;4722;49.340;9.800;2023-06-01T21:46:47;15.60;94.90
9365;DHT22;4722;49.340;9.800;2023-06-01T21:49:13;15.40;96.10
9365;DHT22;4722;49.340;9.800;2023-06-01T21:51:40;15.00;98.10
9365;DHT22;4722;49.340;9.800;2023-06-01T21:54:05;14.90;99.60
9365;DHT22;4722;49.340;9.800;2023-06-01T21:56:31;14.30;99.90
9365;DHT22;4722;49.340;9.800;2023-06-01T21:58:56;14.30;99.90
9365;DHT22;4722;49.340;9.800;2023-06-01T22:01:22;14.40;99.90
9365;DHT22;4722;49.340;9.800;2023-06-01T22:03:48;14.40;99.90
9365;DHT22;4722;49.340;9.800;2023-06-01T22:06:14;14.20;99.90
9365;DHT22;4722;49.340;9.800;2023-06-01T22:08:39;14.20;99.90
9365;DHT22;4722;49.340;9.800;2023-06-01T22:11:04;14.10;99.90
9365;DHT22;4722;49.340;9.800;2023-06-01T22:13:30;14.10;99.90
9365;DHT22;4722;49.340;9.800;2023-06-01T22:15:55;14.10;99.90
9365;DHT22;4722;49.340;9.800;2023-06-01T22:18:21;13.80;99.90
9365;DHT22;4722;49.340;9.800;2023-06-01T22:20:46;14.00;99.90
9365;DHT22;4722;49.340;9.800;2023-06-01T22:23:12;14.00;99.90
9365;DHT22;4722;49.340;9.800;2023-06-01T22:25:37;14.00;99.90
9365;DHT22;4722;49.340;9.800;2023-06-01T22:28:03;13.90;99.90
9365;DHT22;4722;49.340;9.800;2023-06-01T22:30:28;13.80;99.90
9365;DHT22;4722;49.340;9.800;2023-06-01T22:32:54;13.90;99.90
9365;DHT22;4722;49.340;9.800;2023-06-01T22:37:45;13.80;99.90
9365;DHT22;4722;49.340;9.800;2023-06-01T22:45:02;13.70;99.90
9365;DHT22;4722;49.340;9.800;2023-06-01T22:47:28;13.60;99.90
9365;DHT22;4722;49.340;9.800;2023-06-01T22:49:54;13.30;99.90
9365;DHT22;4722;49.340;9.800;2023-06-01T22:52:22;13.50;99.90
9365;DHT22;4722;49.340;9.800;2023-06-01T22:54:47;13.50;99.90
9365;DHT22;4722;49.340;9.800;2023-06-01T22:59:39;13.50;99.90
9365;DHT22;4722;49.340;9.800;2023-06-01T23:02:04;13.30;99.90
9365;DHT22;4722;49.340;9.800;2023-06-01T23:04:30;12.40;99.90
9365;DHT22;4722;49.340;9.800;2023-06-01T23:09:33;13.40;99.90
9365;DHT22;4722;49.340;9.800;2023-06-01T23:11:59;13.50;99.90
9365;DHT22;4722;49.340;9.800;2023-06-01T23:14:26;13.40;99.90
9365;DHT22;4722;49.340;9.800;2023-06-01T23:16:56;13.30;99.90
9365;DHT22;4722;49.340;9.800;2023-06-01T23:19:28;13.40;99.90
9365;DHT22;4722;49.340;9.800;2023-06-01T23:21:57;12.50;99.90
9365;DHT22;4722;49.340;9.800;2023-06-01T23:24:23;13.30;99.90
9365;DHT22;4722;49.340;9.800;2023-06-01T23:26:48;13.30;99.90
9365;DHT22;4722;49.340;9.800;2023-06-01T23:29:14;12.20;99.90
9365;DHT22;4722;49.340;9.800;2023-06-01T23:31:41;13.30;99.90
9365;DHT22;4722;49.340;9.800;2023-06-01T23:34:07;13.20;99.90
9365;DHT22;4722;49.340;9.800;2023-06-01T23:39:06;13.10;99.90
9365;DHT22;4722;49.340;9.800;2023-06-01T23:41:32;12.60;99.90
9365;DHT22;4722;49.340;9.800;2023-06-01T23:43:57;13.10;99.90
9365;DHT22;4722;49.340;9.800;2023-06-01T23:46:23;13.10;99.90
9365;DHT22;4722;49.340;9.800;2023-06-01T23:48:48;12.10;99.90
9365;DHT22;4722;49.340;9.800;2023-06-01T23:51:14;11.90;99.90
9365;DHT22;4722;49.340;9.800;2023-06-01T23:53:40;11.80;99.90
9365;DHT22;4722;49.340;9.800;2023-06-01T23:56:06;12.80;99.90
9365;DHT22;4722;49.340;9.800;2023-06-01T23:58:32;12.40;99.90
